Time;durP1;ratioP1;P1;durP2;ratioP2;P2;SDS_P1;SDS_P2;PMS_P1;PMS_P2;Temp;Humidity;BMP_temperature;BMP_pressure;BME280_temperature;BME280_humidity;BME280_pressure;Samples;Min_cycle;Max_cycle;Signal;HPM_P1;HPM_P2
2024/01/09 00:00:50;;;;;;;4.60;3.08;;;1.80;78.50;;;;;;4719923;30;20063;-90
2024/01/09 00:03:16;;;;;;;4.78;3.03;;;1.80;78.50;;;;;;4725224;30;20470;-89
2024/01/09 00:05:41;;;;;;;3.85;2.97;;;1.80;78.50;;;;;;4722350;30;20028;-90
2024/01/09 00:08:07;;;;;;;3.90;2.75;;;1.80;78.50;;;;;;4731652;30;20111;-89
2024/01/09 00:10:33;;;;;;;3.67;2.75;;;1.80;78.50;;;;;;4752689;30;20245;-89
2024/01/09 00:12:59;;;;;;;4.40;3.10;;;1.80;78.50;;;;;;4734733;30;20043;-89
2024/01/09 00:15:25;;;;;;;3.95;2.75;;;1.80;78.50;;;;;;4734699;30;20039;-90
2024/01/09 00:17:51;;;;;;;4.75;3.53;;;1.80;78.50;;;;;;4734771;30;20390;-89
2024/01/09 00:20:17;;;;;;;4.03;3.08;;;1.70;78.50;;;;;;4719289;30;20959;-89
2024/01/09 00:22:43;;;;;;;3.88;2.85;;;1.80;78.50;;;;;;4749086;30;20110;-89
2024/01/09 00:25:09;;;;;;;4.43;3.33;;;1.80;78.50;;;;;;4730101;30;20032;-89
2024/01/09 00:27:35;;;;;;;3.92;2.67;;;1.70;78.40;;;;;;4733990;30;20036;-90
2024/01/09 00:30:02;;;;;;;4.43;3.00;;;1.70;78.50;;;;;;4732586;30;20532;-88
2024/01/09 00:32:29;;;;;;;4.13;2.80;;;1.70;79.10;;;;;;4723216;30;20059;-89
2024/01/09 00:34:55;;;;;;;4.75;3.15;;;1.70;79.10;;;;;;4733640;30;20029;-89
2024/01/09 00:37:21;;;;;;;4.78;3.10;;;1.70;78.40;;;;;;4747660;30;20127;-89
2024/01/09 00:39:47;;;;;;;4.90;3.30;;;1.70;78.50;;;;;;4718429;30;20035;-89
2024/01/09 00:42:13;;;;;;;4.40;2.85;;;1.70;78.50;;;;;;4741860;30;20059;-89
2024/01/09 00:44:41;;;;;;;3.88;2.90;;;1.70;78.60;;;;;;4733603;30;20068;-89
2024/01/09 00:47:07;;;;;;;4.97;3.28;;;1.70;78.60;;;;;;4726413;30;20044;-89
2024/01/09 00:49:32;;;;;;;4.13;2.80;;;1.60;78.50;;;;;;4742672;30;20036;-90
2024/01/09 00:51:58;;;;;;;4.55;3.17;;;1.70;78.60;;;;;;4745124;30;20040;-90
2024/01/09 00:54:24;;;;;;;3.65;2.83;;;1.60;78.50;;;;;;4727531;30;20036;-90
2024/01/09 00:56:50;;;;;;;4.40;2.90;;;1.60;78.50;;;;;;4733308;30;20067;-89
2024/01/09 00:59:15;;;;;;;3.65;2.78;;;1.60;78.50;;;;;;4718090;30;20093;-89
2024/01/09 01:01:41;;;;;;;3.72;2.95;;;1.60;78.50;;;;;;4732433;30;20036;-90
2024/01/09 01:04:07;;;;;;;4.10;2.85;;;1.60;78.50;;;;;;4724528;30;20406;-89
2024/01/09 01:06:44;;;;;;;3.95;2.80;;;1.60;78.50;;;;;;4733918;30;20040;-88
2024/01/09 01:09:10;;;;;;;4.43;2.90;;;1.60;78.60;;;;;;4743046;30;20152;-89
2024/01/09 01:11:36;;;;;;;4.03;2.80;;;1.60;78.50;;;;;;4733807;30;20080;-89
2024/01/09 01:14:02;;;;;;;3.72;2.80;;;1.60;78.60;;;;;;4738586;30;20047;-89
2024/01/09 01:16:28;;;;;;;4.00;2.80;;;1.60;78.60;;;;;;4743328;30;20040;-89
2024/01/09 01:18:54;;;;;;;4.30;2.90;;;1.50;78.50;;;;;;4728841;30;20036;-89
2024/01/09 01:21:20;;;;;;;4.28;3.08;;;1.50;78.50;;;;;;4721430;30;20496;-90
2024/01/09 01:23:46;;;;;;;2.95;2.50;;;1.50;78.50;;;;;;4733854;30;20028;-89
2024/01/09 01:26:11;;;;;;;3.67;2.80;;;1.50;78.50;;;;;;4736101;30;20433;-89
2024/01/09 01:28:37;;;;;;;4.85;2.88;;;1.50;78.50;;;;;;4728591;30;20088;-88
2024/01/09 01:31:03;;;;;;;4.03;2.70;;;1.50;78.50;;;;;;4737979;30;20032;-90
2024/01/09 01:33:29;;;;;;;3.45;2.65;;;1.50;78.50;;;;;;4731447;30;20047;-89
2024/01/09 01:35:55;;;;;;;3.92;2.78;;;1.50;78.60;;;;;;4718336;30;20119;-89
2024/01/09 01:38:21;;;;;;;3.33;2.67;;;1.50;78.60;;;;;;4732790;30;20032;-89
2024/01/09 01:40:46;;;;;;;4.47;3.17;;;1.50;78.60;;;;;;4725704;30;20055;-89
2024/01/09 01:43:12;;;;;;;2.83;2.40;;;1.50;78.60;;;;;;4733949;30;20297;-89
2024/01/09 01:45:38;;;;;;;3.65;2.40;;;1.50;78.60;;;;;;4730926;30;20595;-91
2024/01/09 01:48:04;;;;;;;4.10;2.97;;;1.50;78.60;;;;;;4731821;30;20102;-90
2024/01/09 01:50:31;;;;;;;3.65;2.65;;;1.50;78.70;;;;;;4729053;30;20067;-90
2024/01/09 01:52:59;;;;;;;3.72;2.70;;;1.40;78.60;;;;;;4735458;30;20077;-89
2024/01/09 01:55:27;;;;;;;3.35;2.60;;;1.40;78.60;;;;;;4734519;30;20070;-89
2024/01/09 01:57:55;;;;;;;4.97;3.08;;;1.40;78.60;;;;;;4740501;30;20076;-90
2024/01/09 02:00:22;;;;;;;4.82;3.10;;;1.40;78.60;;;;;;4725995;30;20082;-89
2024/01/09 02:02:50;;;;;;;3.30;2.75;;;1.40;78.60;;;;;;4738453;30;20555;-89
2024/01/09 02:05:18;;;;;;;4.28;2.65;;;1.40;78.60;;;;;;4743650;30;20033;-89
2024/01/09 02:07:47;;;;;;;3.67;2.80;;;1.40;78.60;;;;;;4745261;30;20345;-89
2024/01/09 02:10:14;;;;;;;3.85;3.10;;;1.40;78.60;;;;;;4720923;30;20036;-90
2024/01/09 02:12:39;;;;;;;4.55;3.00;;;1.40;78.60;;;;;;4721911;30;20040;-89
2024/01/09 02:15:06;;;;;;;3.47;2.78;;;1.40;78.60;;;;;;4740952;30;20044;-88
2024/01/09 02:17:32;;;;;;;4.22;2.92;;;1.40;78.60;;;;;;4729935;30;20411;-90
2024/01/09 02:20:02;;;;;;;4.93;3.08;;;1.40;78.70;;;;;;4721181;30;20400;-90
2024/01/09 02:22:27;;;;;;;4.30;3.08;;;1.40;78.70;;;;;;4737144;30;20204;-90
2024/01/09 02:24:53;;;;;;;4.68;3.00;;;1.40;78.70;;;;;;4730207;30;20470;-89
2024/01/09 02:27:38;;;;;;;4.25;2.80;;;1.40;78.70;;;;;;4746939;30;20477;-89
2024/01/09 02:30:04;;;;;;;3.53;3.10;;;1.40;78.70;;;;;;4736112;30;20133;-90
2024/01/09 02:32:32;;;;;;;3.50;2.53;;;1.30;78.60;;;;;;4748017;30;20040;-90
2024/01/09 02:34:59;;;;;;;3.88;2.95;;;1.30;78.60;;;;;;4724880;30;20048;-90
2024/01/09 02:37:25;;;;;;;4.25;2.90;;;1.30;78.60;;;;;;4735753;30;20038;-89
2024/01/09 02:39:50;;;;;;;4.20;2.90;;;1.30;78.60;;;;;;4738659;30;20123;-90
2024/01/09 02:42:16;;;;;;;4.50;3.33;;;1.30;78.60;;;;;;4729188;30;20032;-90
2024/01/09 02:44:42;;;;;;;3.67;2.75;;;1.30;78.60;;;;;;4727585;30;20043;-89
2024/01/09 02:47:08;;;;;;;4.60;3.17;;;1.30;78.60;;;;;;4719686;30;20555;-89
2024/01/09 02:49:35;;;;;;;3.63;2.85;;;1.30;78.60;;;;;;4738755;30;20117;-89
2024/01/09 02:52:02;;;;;;;3.78;2.80;;;1.30;78.70;;;;;;4745774;30;20029;-90
2024/01/09 02:54:28;;;;;;;3.35;2.72;;;1.30;78.70;;;;;;4729943;30;20025;-90
2024/01/09 02:56:54;;;;;;;3.20;2.58;;;1.30;78.60;;;;;;4724405;30;20047;-89
2024/01/09 02:59:19;;;;;;;3.97;2.65;;;1.30;78.60;;;;;;4733714;30;20035;-89
2024/01/09 03:01:45;;;;;;;3.67;2.85;;;1.30;78.60;;;;;;4732567;30;20505;-88
2024/01/09 03:04:11;;;;;;;4.05;3.05;;;1.30;78.70;;;;;;4744973;30;20028;-89
2024/01/09 03:06:36;;;;;;;4.60;2.83;;;1.30;78.70;;;;;;4730603;30;20490;-89
2024/01/09 03:09:03;;;;;;;4.50;3.08;;;1.20;78.60;;;;;;4724914;30;20024;-88
2024/01/09 03:11:28;;;;;;;3.70;2.88;;;1.20;78.60;;;;;;4722554;30;20565;-89
2024/01/09 03:13:54;;;;;;;4.82;3.03;;;1.30;78.70;;;;;;4734072;30;20167;-89
2024/01/09 03:16:20;;;;;;;3.65;2.90;;;1.20;78.60;;;;;;4721036;30;20057;-89
2024/01/09 03:18:45;;;;;;;4.53;3.10;;;1.20;78.60;;;;;;4741481;30;20040;-90
2024/01/09 03:21:12;;;;;;;4.45;3.22;;;1.20;78.60;;;;;;4736071;30;20100;-89
2024/01/09 03:23:37;;;;;;;3.88;2.92;;;1.30;78.70;;;;;;4723864;30;20036;-88
2024/01/09 03:26:03;;;;;;;3.88;2.80;;;1.20;78.60;;;;;;4731982;30;20043;-91
2024/01/09 03:28:29;;;;;;;4.50;3.10;;;1.20;78.60;;;;;;4742930;30;20056;-89
2024/01/09 03:30:55;;;;;;;4.30;3.08;;;1.20;78.60;;;;;;4735600;30;20055;-89
2024/01/09 03:33:21;;;;;;;5.68;2.97;;;1.20;78.60;;;;;;4735240;30;20031;-90
2024/01/09 03:35:47;;;;;;;4.80;2.80;;;1.20;78.60;;;;;;4733085;30;20115;-90
2024/01/09 03:38:13;;;;;;;3.35;2.85;;;1.20;78.70;;;;;;4729902;30;20040;-89
2024/01/09 03:40:38;;;;;;;4.53;3.22;;;1.20;78.60;;;;;;4718276;30;20409;-90
2024/01/09 03:43:07;;;;;;;4.38;3.10;;;1.20;78.70;;;;;;4735243;30;20032;-89
2024/01/09 03:45:33;;;;;;;4.45;2.95;;;1.20;78.70;;;;;;4731146;30;20158;-89
2024/01/09 03:47:59;;;;;;;4.05;2.78;;;1.10;78.70;;;;;;4750860;30;20033;-89
2024/01/09 03:50:24;;;;;;;4.57;3.03;;;1.10;78.70;;;;;;4718030;30;20486;-90
2024/01/09 03:52:50;;;;;;;4.28;3.13;;;1.10;78.70;;;;;;4721036;30;20429;-89
2024/01/09 03:55:16;;;;;;;4.57;3.40;;;1.10;78.70;;;;;;4721677;30;20477;-88
2024/01/09 03:57:42;;;;;;;5.13;3.50;;;1.10;78.60;;;;;;4726155;30;20086;-90
2024/01/09 04:00:09;;;;;;;3.58;2.80;;;1.10;78.60;;;;;;4735449;30;20032;-91
2024/01/09 04:02:35;;;;;;;4.40;3.38;;;1.10;78.70;;;;;;4736808;30;20039;-89
2024/01/09 04:05:01;;;;;;;4.75;3.38;;;1.10;78.70;;;;;;4733231;30;20040;-89
2024/01/09 04:07:27;;;;;;;4.70;3.35;;;1.10;78.70;;;;;;4735579;30;20448;-89
2024/01/09 04:09:53;;;;;;;4.18;3.22;;;1.10;78.70;;;;;;4731053;30;20044;-89
2024/01/09 04:12:19;;;;;;;4.07;2.95;;;1.10;78.80;;;;;;4727924;30;20373;-90
2024/01/09 04:14:45;;;;;;;3.75;2.85;;;1.10;78.70;;;;;;4733864;30;20039;-89
2024/01/09 04:17:11;;;;;;;3.90;2.90;;;1.10;78.70;;;;;;4745693;30;20028;-90
2024/01/09 04:19:38;;;;;;;4.20;3.20;;;1.10;78.70;;;;;;4731615;30;20037;-89
2024/01/09 04:22:05;;;;;;;4.10;3.10;;;1.10;78.70;;;;;;4735772;30;20040;-91
2024/01/09 04:24:32;;;;;;;3.55;2.90;;;1.10;78.70;;;;;;4734757;30;20521;-89
2024/01/09 04:26:57;;;;;;;4.28;3.42;;;1.00;78.70;;;;;;4730317;30;20044;-90
2024/01/09 04:29:24;;;;;;;3.95;3.05;;;1.00;78.70;;;;;;4756574;30;20131;-89
2024/01/09 04:31:49;;;;;;;4.20;2.83;;;1.00;78.70;;;;;;4737289;30;20032;-89
2024/01/09 04:34:15;;;;;;;4.53;3.13;;;1.00;78.70;;;;;;4735011;30;20120;-90
2024/01/09 04:36:41;;;;;;;4.38;3.30;;;1.00;78.70;;;;;;4739306;30;20040;-89
2024/01/09 04:39:07;;;;;;;4.57;3.20;;;1.00;78.70;;;;;;4751233;30;20065;-89
2024/01/09 04:41:32;;;;;;;4.70;3.42;;;1.00;78.70;;;;;;4736502;30;20569;-89
2024/01/09 04:43:58;;;;;;;5.28;3.33;;;1.00;78.70;;;;;;4722094;30;20501;-89
2024/01/09 04:46:24;;;;;;;4.75;3.40;;;1.00;78.70;;;;;;4739237;30;20036;-89
2024/01/09 04:48:50;;;;;;;4.82;3.40;;;1.00;78.70;;;;;;4740645;30;20032;-89
2024/01/09 04:51:15;;;;;;;4.53;3.28;;;0.90;78.70;;;;;;4728039;30;20048;-90
2024/01/09 04:53:41;;;;;;;4.50;3.30;;;0.90;78.70;;;;;;4720276;30;20379;-89
2024/01/09 04:56:08;;;;;;;5.00;3.45;;;0.90;78.70;;;;;;4726191;30;20110;-89
2024/01/09 04:58:34;;;;;;;4.75;3.63;;;0.90;78.70;;;;;;4746391;30;20052;-89
2024/01/09 05:01:00;;;;;;;5.38;3.65;;;0.90;78.70;;;;;;4714992;30;20035;-91
2024/01/09 05:03:26;;;;;;;4.57;3.38;;;0.90;78.70;;;;;;4734286;30;20036;-89
2024/01/09 05:05:51;;;;;;;4.78;3.38;;;0.90;78.70;;;;;;4729858;30;20032;-88
2024/01/09 05:08:17;;;;;;;4.78;3.35;;;0.90;78.80;;;;;;4711533;30;20029;-89
2024/01/09 05:10:44;;;;;;;4.53;3.40;;;0.90;78.70;;;;;;4718111;30;20032;-89
2024/01/09 05:13:10;;;;;;;5.13;3.63;;;0.90;78.70;;;;;;4718345;30;20033;-89
2024/01/09 05:15:36;;;;;;;4.78;3.50;;;0.90;78.70;;;;;;4733480;30;20033;-89
2024/01/09 05:18:02;;;;;;;6.20;3.88;;;0.80;78.70;;;;;;4719981;30;20406;-89
2024/01/09 05:20:28;;;;;;;5.10;3.35;;;0.90;78.70;;;;;;4724900;30;20032;-89
2024/01/09 05:22:55;;;;;;;5.00;3.40;;;0.80;78.70;;;;;;4732438;30;20036;-89
2024/01/09 05:25:20;;;;;;;4.47;3.35;;;0.80;78.70;;;;;;4746274;30;20040;-92
2024/01/09 05:27:46;;;;;;;5.32;3.20;;;0.80;78.70;;;;;;4735349;30;20032;-92
2024/01/09 05:30:12;;;;;;;5.68;3.25;;;0.80;78.70;;;;;;4717373;30;20055;-90
2024/01/09 05:32:39;;;;;;;4.68;3.03;;;0.80;78.70;;;;;;4720896;30;20178;-89
2024/01/09 05:35:05;;;;;;;5.32;3.78;;;0.80;78.80;;;;;;4736584;30;20076;-89
2024/01/09 05:37:31;;;;;;;4.82;3.58;;;0.80;78.70;;;;;;4722706;30;20131;-90
2024/01/09 05:39:57;;;;;;;5.25;3.65;;;0.80;78.70;;;;;;4736569;30;20087;-90
2024/01/09 05:42:23;;;;;;;4.90;3.58;;;0.80;78.70;;;;;;4736942;30;20087;-88
2024/01/09 05:44:48;;;;;;;5.38;3.75;;;0.80;78.70;;;;;;4727615;30;20043;-86
2024/01/09 05:47:14;;;;;;;5.15;3.50;;;0.80;78.70;;;;;;4750083;30;20112;-86
2024/01/09 05:49:40;;;;;;;6.28;4.07;;;0.80;78.70;;;;;;4742693;30;20447;-92
2024/01/09 05:52:05;;;;;;;5.13;3.55;;;0.80;78.70;;;;;;4753779;30;20058;-91
2024/01/09 05:54:31;;;;;;;4.85;3.80;;;0.70;78.70;;;;;;4725361;30;20106;-92
2024/01/09 05:56:57;;;;;;;4.93;3.42;;;0.70;78.70;;;;;;4743395;30;20036;-92
2024/01/09 05:59:23;;;;;;;6.35;4.07;;;0.70;78.70;;;;;;4738922;30;20382;-93
2024/01/09 06:01:49;;;;;;;5.05;3.88;;;0.70;78.70;;;;;;4722921;30;20032;-91
2024/01/09 06:04:15;;;;;;;4.75;3.80;;;0.70;78.70;;;;;;4734225;30;20207;-89
2024/01/09 06:06:40;;;;;;;5.25;3.85;;;0.70;78.70;;;;;;4727841;30;20349;-88
2024/01/09 06:09:06;;;;;;;5.97;4.00;;;0.70;78.70;;;;;;4729183;30;20068;-89
2024/01/09 06:11:32;;;;;;;5.57;4.07;;;0.70;78.70;;;;;;4737827;30;20549;-89
2024/01/09 06:13:57;;;;;;;5.28;3.58;;;0.70;78.70;;;;;;4728687;30;20040;-90
2024/01/09 06:16:23;;;;;;;5.25;4.00;;;0.70;78.70;;;;;;4734629;30;20086;-90
2024/01/09 06:18:49;;;;;;;5.47;3.72;;;0.70;78.70;;;;;;4723568;30;20055;-92
2024/01/09 06:21:15;;;;;;;5.32;3.63;;;0.60;78.70;;;;;;4739059;30;20137;-88
2024/01/09 06:23:41;;;;;;;5.55;3.85;;;0.60;78.60;;;;;;4730130;30;20028;-84
2024/01/09 06:26:06;;;;;;;5.80;3.95;;;0.60;78.70;;;;;;4732177;30;20231;-84
2024/01/09 06:28:33;;;;;;;5.53;3.83;;;0.60;78.60;;;;;;4737697;30;20123;-85
2024/01/09 06:30:59;;;;;;;5.78;3.90;;;0.60;78.60;;;;;;4744762;30;20040;-84
2024/01/09 06:33:26;;;;;;;5.40;3.53;;;0.60;78.60;;;;;;4730997;30;20100;-84
2024/01/09 06:35:52;;;;;;;5.20;3.78;;;0.60;78.70;;;;;;4748953;30;20559;-84
2024/01/09 06:38:17;;;;;;;6.00;3.88;;;0.60;78.70;;;;;;4717325;30;20028;-84
2024/01/09 06:40:44;;;;;;;6.20;3.88;;;0.60;78.70;;;;;;4726683;30;20036;-84
2024/01/09 06:43:09;;;;;;;5.90;3.67;;;0.60;78.70;;;;;;4732917;30;20115;-84
2024/01/09 06:45:35;;;;;;;5.38;3.92;;;0.50;78.60;;;;;;4734757;30;20123;-84
2024/01/09 06:48:01;;;;;;;5.78;4.38;;;0.50;78.60;;;;;;4725815;30;20056;-85
2024/01/09 06:50:27;;;;;;;5.25;3.67;;;0.50;78.60;;;;;;4741020;30;20083;-84
2024/01/09 06:52:53;;;;;;;5.95;3.88;;;0.50;78.60;;;;;;4748532;30;20067;-84
2024/01/09 06:55:20;;;;;;;6.55;4.45;;;0.50;78.60;;;;;;4732203;30;20060;-84
2024/01/09 06:57:45;;;;;;;6.47;4.45;;;0.50;78.60;;;;;;4735896;30;20043;-83
2024/01/09 07:00:12;;;;;;;7.05;4.15;;;0.50;78.60;;;;;;4739705;30;20024;-86
2024/01/09 07:02:38;;;;;;;5.85;4.35;;;0.50;78.70;;;;;;4725811;30;20024;-85
2024/01/09 07:05:05;;;;;;;6.22;4.25;;;0.50;78.70;;;;;;4739422;30;20059;-84
2024/01/09 07:07:30;;;;;;;6.88;4.35;;;0.50;78.60;;;;;;4738050;30;20036;-85
2024/01/09 07:09:56;;;;;;;5.97;4.20;;;0.50;78.60;;;;;;4733490;30;20563;-84
2024/01/09 07:12:22;;;;;;;5.90;3.95;;;0.40;78.60;;;;;;4736630;30;20069;-85
2024/01/09 07:14:48;;;;;;;6.60;4.47;;;0.40;78.60;;;;;;4750719;30;20028;-84
2024/01/09 07:17:15;;;;;;;5.90;3.75;;;0.40;78.60;;;;;;4733064;30;20100;-84
2024/01/09 07:19:41;;;;;;;6.18;4.10;;;0.40;78.60;;;;;;4725852;30;20554;-84
2024/01/09 07:22:07;;;;;;;5.72;3.97;;;0.40;78.60;;;;;;4738356;30;20024;-84
2024/01/09 07:24:33;;;;;;;7.07;4.78;;;0.40;78.60;;;;;;4738155;30;20028;-81
2024/01/09 07:26:59;;;;;;;7.03;4.35;;;0.40;78.60;;;;;;4753088;30;20131;-82
2024/01/09 07:29:25;;;;;;;5.93;4.28;;;0.40;78.60;;;;;;4738749;30;20088;-83
2024/01/09 07:31:51;;;;;;;6.30;3.88;;;0.40;79.20;;;;;;4720482;30;20032;-84
2024/01/09 07:34:16;;;;;;;6.05;4.00;;;0.30;78.50;;;;;;4744032;30;20191;-83
2024/01/09 07:36:43;;;;;;;5.35;3.92;;;0.40;78.60;;;;;;4722090;30;20071;-83
2024/01/09 07:39:09;;;;;;;6.18;4.30;;;0.30;78.50;;;;;;4736470;30;20107;-80
2024/01/09 07:41:36;;;;;;;6.57;4.32;;;0.30;78.60;;;;;;4740157;30;20088;-83
2024/01/09 07:44:02;;;;;;;6.25;4.38;;;0.30;78.60;;;;;;4737621;30;20113;-83
2024/01/09 07:46:29;;;;;;;5.68;4.00;;;0.30;78.60;;;;;;4735572;30;20044;-82
2024/01/09 07:48:54;;;;;;;6.05;4.20;;;0.30;78.50;;;;;;4716779;30;20059;-82
2024/01/09 07:51:20;;;;;;;5.30;4.00;;;0.30;78.60;;;;;;4746928;30;20055;-87
2024/01/09 07:53:46;;;;;;;6.75;4.45;;;0.30;78.60;;;;;;4727116;30;20098;-85
2024/01/09 07:56:18;;;;;;;6.00;3.80;;;0.30;78.50;;;;;;4733430;30;20513;-81
2024/01/09 07:58:45;;;;;;;6.85;4.25;;;0.30;78.50;;;;;;4723231;30;20098;-89
2024/01/09 08:01:11;;;;;;;6.13;4.10;;;0.30;78.50;;;;;;4734067;30;20036;-89
2024/01/09 08:03:38;;;;;;;5.97;4.00;;;0.30;78.50;;;;;;4749033;30;20046;-89
2024/01/09 08:06:04;;;;;;;6.75;4.57;;;0.30;78.50;;;;;;4747428;30;20033;-89
2024/01/09 08:08:30;;;;;;;6.22;4.28;;;0.30;78.50;;;;;;4748183;30;20516;-88
2024/01/09 08:10:56;;;;;;;7.10;4.68;;;0.20;78.50;;;;;;4714310;30;20033;-88
2024/01/09 08:13:22;;;;;;;6.13;4.38;;;0.20;78.50;;;;;;4735304;30;20024;-89
2024/01/09 08:15:48;;;;;;;6.72;4.30;;;0.20;78.50;;;;;;4739577;30;20078;-89
2024/01/09 08:18:14;;;;;;;6.13;3.80;;;0.20;78.50;;;;;;4743658;30;20068;-88
2024/01/09 08:20:43;;;;;;;6.40;4.47;;;0.20;78.50;;;;;;4730637;30;20033;-88
2024/01/09 08:23:10;;;;;;;5.80;4.50;;;0.20;78.50;;;;;;4726820;30;20055;-88
2024/01/09 08:25:35;;;;;;;6.10;4.50;;;0.20;78.50;;;;;;4712697;30;20033;-87
2024/01/09 08:28:01;;;;;;;5.88;4.05;;;0.20;78.50;;;;;;4736952;30;20036;-87
2024/01/09 08:30:27;;;;;;;5.80;3.97;;;0.20;78.50;;;;;;4735275;30;20052;-88
2024/01/09 08:32:53;;;;;;;6.18;4.55;;;0.20;78.40;;;;;;4721399;30;20554;-88
2024/01/09 08:35:18;;;;;;;5.53;3.97;;;0.20;78.40;;;;;;4720035;30;20033;-89
2024/01/09 08:37:44;;;;;;;6.57;4.45;;;0.20;78.40;;;;;;4746042;30;20563;-88
2024/01/09 08:40:10;;;;;;;6.05;4.40;;;0.20;78.40;;;;;;4717577;30;20392;-87
2024/01/09 08:42:36;;;;;;;6.20;4.50;;;0.20;78.40;;;;;;4717460;30;20032;-87
2024/01/09 08:45:03;;;;;;;6.43;4.32;;;0.10;78.40;;;;;;4732995;30;20032;-89
2024/01/09 08:47:28;;;;;;;6.18;4.50;;;0.20;78.40;;;;;;4729013;30;20032;-88
2024/01/09 08:49:54;;;;;;;5.93;4.18;;;0.20;78.40;;;;;;4753831;30;20119;-88
2024/01/09 08:52:24;;;;;;;5.82;4.40;;;0.20;79.10;;;;;;4725681;30;20459;-87
2024/01/09 08:54:52;;;;;;;6.50;4.65;;;0.20;78.40;;;;;;4744542;30;20024;-89
2024/01/09 08:57:19;;;;;;;6.18;4.32;;;0.20;78.40;;;;;;4746095;30;20044;-88
2024/01/09 08:59:45;;;;;;;6.80;4.20;;;0.20;78.40;;;;;;4733566;30;20031;-88
2024/01/09 09:02:11;;;;;;;6.30;3.92;;;0.20;78.40;;;;;;4724395;30;20040;-87
2024/01/09 09:04:37;;;;;;;6.55;4.25;;;0.20;78.30;;;;;;4741141;30;20539;-87
2024/01/09 09:07:03;;;;;;;6.03;4.00;;;0.10;78.30;;;;;;4733446;30;20064;-88
2024/01/09 09:09:30;;;;;;;6.03;4.00;;;0.20;78.40;;;;;;4729899;30;20044;-88
2024/01/09 09:11:58;;;;;;;5.75;4.07;;;0.10;78.30;;;;;;4727983;30;20036;-87
2024/01/09 09:14:24;;;;;;;5.00;3.72;;;0.10;78.30;;;;;;4736696;30;20547;-87
2024/01/09 09:16:51;;;;;;;6.80;4.20;;;0.20;78.40;;;;;;4727547;30;20029;-88
2024/01/09 09:19:17;;;;;;;6.32;3.95;;;0.10;78.30;;;;;;4722763;30;20024;-87
2024/01/09 09:21:43;;;;;;;5.47;4.07;;;0.10;78.30;;;;;;4731673;30;20047;-87
2024/01/09 09:24:09;;;;;;;6.80;4.35;;;0.10;78.30;;;;;;4735358;30;20406;-87
2024/01/09 09:26:35;;;;;;;5.55;3.90;;;0.20;78.30;;;;;;4735119;30;20107;-87
2024/01/09 09:29:01;;;;;;;5.80;3.90;;;0.20;78.30;;;;;;4737887;30;20055;-89
2024/01/09 09:31:27;;;;;;;6.95;4.50;;;0.20;78.30;;;;;;4734096;30;20029;-87
2024/01/09 09:33:55;;;;;;;7.05;4.35;;;0.20;78.30;;;;;;4721018;30;20071;-89
2024/01/09 09:36:21;;;;;;;6.32;4.03;;;0.20;78.20;;;;;;4729028;30;20033;-88
2024/01/09 09:38:47;;;;;;;5.80;4.07;;;0.20;78.20;;;;;;4745394;30;20135;-88
2024/01/09 09:41:16;;;;;;;6.80;4.82;;;0.20;78.20;;;;;;4737232;30;20062;-89
2024/01/09 09:43:52;;;;;;;6.47;4.20;;;0.30;78.20;;;;;;4734780;30;20058;-87
2024/01/09 09:46:25;;;;;;;5.30;3.80;;;0.30;78.20;;;;;;4734816;30;20099;-90
2024/01/09 09:48:53;;;;;;;7.38;4.25;;;0.30;78.20;;;;;;4747442;30;20067;-88
2024/01/09 09:51:22;;;;;;;5.93;3.92;;;0.30;78.20;;;;;;4737934;30;20043;-87
2024/01/09 09:53:49;;;;;;;6.18;4.28;;;0.30;78.20;;;;;;4713012;30;20051;-88
2024/01/09 09:56:15;;;;;;;6.07;4.13;;;0.30;78.20;;;;;;4731542;30;20098;-88
2024/01/09 09:58:41;;;;;;;5.55;3.83;;;0.30;78.10;;;;;;4719758;30;20495;-87
2024/01/09 10:01:11;;;;;;;5.75;4.18;;;0.30;78.10;;;;;;4740812;30;20029;-87
2024/01/09 10:03:48;;;;;;;6.28;4.05;;;0.30;78.10;;;;;;4747626;30;20060;-87
2024/01/09 10:06:16;;;;;;;5.32;3.78;;;0.30;78.10;;;;;;4739890;30;20036;-87
2024/01/09 10:08:43;;;;;;;7.85;4.40;;;0.30;78.10;;;;;;4735053;30;20036;-87
2024/01/09 10:11:09;;;;;;;6.35;3.97;;;0.30;78.10;;;;;;4736825;30;20047;-87
2024/01/09 10:13:35;;;;;;;5.72;3.88;;;0.40;78.20;;;;;;4731977;30;20495;-89
2024/01/09 10:16:02;;;;;;;5.40;3.83;;;0.30;78.10;;;;;;4738064;30;20170;-88
2024/01/09 10:18:29;;;;;;;7.03;4.45;;;0.40;78.20;;;;;;4721441;30;20574;-88
2024/01/09 10:20:57;;;;;;;5.30;3.78;;;0.40;78.20;;;;;;4719535;30;20033;-89
2024/01/09 10:23:23;;;;;;;6.20;4.03;;;0.40;78.20;;;;;;4735497;30;20486;-88
2024/01/09 10:25:50;;;;;;;5.57;3.83;;;0.40;78.20;;;;;;4719809;30;20037;-88
2024/01/09 10:28:17;;;;;;;5.88;4.30;;;0.40;78.20;;;;;;4746279;30;20028;-90
2024/01/09 10:30:43;;;;;;;6.05;4.30;;;0.40;78.20;;;;;;4712973;30;20044;-87
2024/01/09 10:33:11;;;;;;;5.30;4.00;;;0.40;78.20;;;;;;4719575;30;20028;-87
2024/01/09 10:35:37;;;;;;;5.03;3.72;;;0.40;78.20;;;;;;4722571;30;20044;-88
2024/01/09 10:38:03;;;;;;;6.10;4.15;;;0.40;78.20;;;;;;4747103;30;20133;-89
2024/01/09 10:40:29;;;;;;;5.93;4.20;;;0.40;78.20;;;;;;4739373;30;20134;-87
2024/01/09 10:42:55;;;;;;;6.05;3.75;;;0.50;78.20;;;;;;4740973;30;20016;-88
2024/01/09 10:45:26;;;;;;;5.13;3.70;;;0.50;78.20;;;;;;4742878;30;20032;-89
2024/01/09 10:47:55;;;;;;;6.45;4.25;;;0.50;78.20;;;;;;4739411;30;20122;-88
2024/01/09 10:50:21;;;;;;;5.72;3.60;;;0.50;78.20;;;;;;4742782;30;20043;-87
2024/01/09 10:52:48;;;;;;;5.72;3.67;;;0.50;78.20;;;;;;4741897;30;20028;-88
2024/01/09 10:55:16;;;;;;;5.63;3.80;;;0.50;78.30;;;;;;4724167;30;20032;-87
2024/01/09 10:57:42;;;;;;;5.63;3.63;;;0.50;78.30;;;;;;4733503;30;20033;-88
2024/01/09 11:00:12;;;;;;;6.53;3.90;;;0.50;78.30;;;;;;4730933;30;20106;-87
2024/01/09 11:02:38;;;;;;;6.35;3.90;;;0.50;78.30;;;;;;4725821;30;20076;-88
2024/01/09 11:05:10;;;;;;;5.40;3.85;;;0.50;78.30;;;;;;4744655;30;20032;-88
2024/01/09 11:07:37;;;;;;;5.70;3.90;;;0.50;78.30;;;;;;4735849;30;20123;-87
2024/01/09 11:10:04;;;;;;;5.93;3.95;;;0.50;78.30;;;;;;4729704;30;20032;-88
2024/01/09 11:12:34;;;;;;;5.85;4.07;;;0.50;78.30;;;;;;4731201;30;20016;-88
2024/01/09 11:15:21;;;;;;;5.15;3.35;;;0.60;78.30;;;;;;4723673;30;20457;-87
2024/01/09 11:17:53;;;;;;;6.35;3.70;;;0.50;78.30;;;;;;4734849;30;20074;-87
2024/01/09 11:20:20;;;;;;;5.15;3.67;;;0.60;78.30;;;;;;4721329;30;20086;-88
2024/01/09 11:22:45;;;;;;;5.35;3.63;;;0.60;78.30;;;;;;4730612;30;20052;-87
2024/01/09 11:25:22;;;;;;;5.13;3.58;;;0.60;78.30;;;;;;4738143;30;20040;-87
2024/01/09 11:27:50;;;;;;;5.47;3.83;;;0.60;78.30;;;;;;4746541;30;20044;-87
2024/01/09 11:30:21;;;;;;;5.55;3.60;;;0.60;78.30;;;;;;4744076;30;20052;-91
2024/01/09 11:32:47;;;;;;;5.60;3.67;;;0.60;78.30;;;;;;4733727;30;20117;-89
2024/01/09 11:35:14;;;;;;;5.95;3.83;;;0.60;78.20;;;;;;4740375;30;20549;-88
2024/01/09 11:37:43;;;;;;;5.63;3.72;;;0.60;78.20;;;;;;4750307;30;20032;-89
2024/01/09 11:40:10;;;;;;;5.88;3.88;;;0.70;78.30;;;;;;4737225;30;20032;-88
2024/01/09 11:42:37;;;;;;;5.57;4.03;;;0.60;78.20;;;;;;4736684;30;20043;-88
2024/01/09 11:45:07;;;;;;;5.15;3.80;;;0.70;78.20;;;;;;4735894;30;20120;-88
2024/01/09 11:47:39;;;;;;;5.43;3.80;;;0.70;78.20;;;;;;4743954;30;20052;-89
2024/01/09 11:50:12;;;;;;;6.05;3.95;;;0.70;78.20;;;;;;4736161;30;20044;-88
2024/01/09 11:52:42;;;;;;;4.80;3.40;;;0.70;78.20;;;;;;4733399;30;20045;-89
2024/01/09 11:55:11;;;;;;;5.40;3.55;;;0.70;78.20;;;;;;4733827;30;20039;-89
2024/01/09 11:57:40;;;;;;;5.00;3.58;;;0.70;78.20;;;;;;4715134;30;20329;-89
2024/01/09 12:00:07;;;;;;;4.85;3.22;;;0.80;78.30;;;;;;4753199;30;20482;-89
2024/01/09 12:02:34;;;;;;;4.68;3.10;;;0.80;78.20;;;;;;4732112;30;20048;-88
2024/01/09 12:05:07;;;;;;;5.18;3.50;;;0.80;78.30;;;;;;4709996;30;20033;-88
2024/01/09 12:07:43;;;;;;;5.40;3.60;;;0.80;78.20;;;;;;4719183;30;20039;-88
2024/01/09 12:10:09;;;;;;;5.70;3.45;;;0.80;78.20;;;;;;4712598;30;20054;-88
2024/01/09 12:12:35;;;;;;;5.20;3.45;;;0.80;78.20;;;;;;4735433;30;20482;-89
2024/01/09 12:15:01;;;;;;;5.63;3.88;;;0.80;78.20;;;;;;4742430;30;20052;-89
2024/01/09 12:17:36;;;;;;;6.00;3.72;;;0.80;78.20;;;;;;4743431;30;20123;-88
2024/01/09 12:20:02;;;;;;;;;;;0.90;78.20;;;;;;4731316;30;20116;-87
2024/01/09 12:22:29;;;;;;;4.82;3.20;;;0.80;78.10;;;;;;4732480;30;20459;-87
2024/01/09 12:24:55;;;;;;;4.05;3.10;;;0.90;78.10;;;;;;4725257;30;20042;-87
2024/01/09 12:27:23;;;;;;;4.90;3.30;;;0.90;78.10;;;;;;4732625;30;20064;-87
2024/01/09 12:29:50;;;;;;;4.97;3.30;;;0.90;78.10;;;;;;4713288;30;20057;-88
2024/01/09 12:32:16;;;;;;;4.53;3.20;;;0.90;78.10;;;;;;4737195;30;20039;-88
2024/01/09 12:34:42;;;;;;;5.55;3.88;;;0.90;78.10;;;;;;4749009;30;20034;-88
2024/01/09 12:37:08;;;;;;;4.55;3.50;;;1.00;78.10;;;;;;4733109;30;20036;-86
2024/01/09 12:39:35;;;;;;;5.90;3.28;;;1.00;78.10;;;;;;4730885;30;20036;-88
2024/01/09 12:42:10;;;;;;;4.70;3.40;;;1.00;78.10;;;;;;4743525;30;20036;-88
2024/01/09 12:44:38;;;;;;;5.78;3.58;;;1.10;78.10;;;;;;4735828;30;20490;-89
2024/01/09 12:47:06;;;;;;;6.13;3.78;;;1.10;78.10;;;;;;4735590;30;20070;-89
2024/01/09 12:49:42;;;;;;;5.40;3.53;;;1.10;78.10;;;;;;4723998;30;20032;-89
2024/01/09 12:52:08;;;;;;;5.28;3.88;;;1.10;78.10;;;;;;4718104;30;20036;-89
2024/01/09 12:54:34;;;;;;;4.40;3.35;;;1.10;78.00;;;;;;4724965;30;20069;-88